Sonic Adventure (DX): Overall Rankings

Records: Times | Rings | Scores | Races | Bosses | Freestyle
Leaders: Times | Rings | Scores | Races | Bosses | Freestyle | Overall
Rank Player Percent Points Order Asc Date
1 Sonicspeedruner 98.4% 255 05-27-15
2 Gamepro011 97.6% 384 05-27-15
3 DarkPolarNight 96.3% 599 05-27-15
4 Jawzun 93.9% 992 05-27-15
5 Dashjump 91.7% 1336 05-27-15
6 DarkspinesSonic 90.8% 1493 05-27-15
7 Avento128bits 90.3% 1568 05-27-15
8 ike6252 90.1% 1601 05-27-15
9 F-Man 86.0% 2271 05-27-15
10 HyperSonic7701 85.1% 2419 05-27-15
11 Coolfansonic 84.0% 2603 05-27-15
12 yoshifan 83.5% 2680 05-27-15
13 frankoredstrato 83.1% 2750 05-27-15
14 TheRealShadnic 82.1% 2908 05-27-15
15 francisco 82.1% 2911 05-27-15
16 Marth 81.7% 2966 05-27-15
17 InferSaime 80.4% 3181 05-27-15
18 PfoSonic 80.0% 3243 05-27-15
19 Paragod 79.5% 3326 05-27-15
20 THC98 78.3% 3518 05-27-15
21 Stefan 76.2% 3857 05-27-15
22 RPGnutter 74.0% 4229 05-27-15
23 bertin 73.9% 4234 05-27-15
24 sonicam 71.7% 4605 05-27-15
25 Combo 65.6% 5586 05-27-15
26 SkyLights 64.4% 5777 05-27-15
27 xXMegaManXx 63.6% 5916 05-27-15
28 Diamond 62.8% 6046 05-27-15
29 GerbilSoft 60.3% 6450 05-27-15
30 OmegaDJ 60.3% 6453 05-27-15
31 Auriman1 60.2% 6467 05-27-15
32 drminus 59.5% 6582 05-27-15
33 magnum12 59.3% 6615 05-27-15
34 Dawid8404 59.1% 6642 05-27-15
35 Thorn 57.2% 6952 05-27-15
36 P1 Pause 57.0% 6994 05-27-15
37 mike89 55.7% 7193 05-27-15
38 chainchumper 54.0% 7474 05-27-15
39 Groudon199 53.9% 7498 05-27-15
40 Dave Cramer 53.9% 7500 05-27-15
41 Parax 53.3% 7587 05-27-15
42 Shadow Jacky 52.8% 7680 05-27-15
43 Psymar 47.6% 8521 05-27-15
44 Chao_Fan 45.8% 8816 05-27-15
45 Arch 45.5% 8854 05-27-15
46 mauserman 45.4% 8874 05-27-15
47 Quartz 44.7% 8997 05-27-15
48 teamblackarms 43.6% 9164 05-27-15
49 Psyknux 43.5% 9186 05-27-15
50 James_Bertolli 42.9% 9287 05-27-15
51 NintenDan 42.3% 9376 05-27-15
52 Fr3nZy 41.8% 9467 05-27-15
53 Webber3000 41.8% 9468 05-27-15
54 Turbos 41.6% 9490 05-27-15
55 Ring Rush 41.6% 9499 05-27-15
56 Cream147 41.3% 9538 05-27-15
57 videogamemaster777 41.3% 9552 05-27-15
58 Siavash Tazari 41.0% 9590 05-27-15
59 buddychaos0415 40.6% 9666 05-27-15
60 SadisticMystic 39.9% 9772 05-27-15
61 eggFL 39.1% 9910 05-27-15
62 Redd 38.6% 9983 05-27-15
63 SB737 37.4% 10171 05-27-15
64 supersonicfan 36.3% 10364 05-27-15
65 FuzZerd 35.3% 10526 05-27-15
66 elecmouse101 34.5% 10650 05-27-15
67 supersonic465 34.4% 10672 05-27-15
68 Austinf 33.6% 10794 05-27-15
69 metanightmare22 32.9% 10917 05-27-15
70 Aitamen 32.9% 10918 05-27-15
71 dabestgamer 32.7% 10942 05-27-15
72 MiStEr_ShAoLiN 32.6% 10961 05-27-15
73 Cyan Ryan 32.6% 10968 05-27-15
74 itsPersonnal 31.8% 11088 05-27-15
75 Cybrax 30.9% 11236 05-27-15
76 Andrea Ritsu 30.6% 11289 05-27-15
77 danieldude 30.5% 11306 05-27-15
78 SilvertheAlmighty 30.4% 11315 05-27-15
79 VMU Player Banned 28.8% 11577 05-27-15
80 Omega Rafael Santos 28.4% 11636 05-27-15
81 Staf 28.1% 11689 05-27-15
82 The T 27.9% 11722 05-27-15
83 EngiNerd 27.6% 11772 05-27-15
84 lordmetalsonic 26.9% 11893 05-27-15
85 Hipertails12 26.7% 11913 05-27-15
86 welldooder64 26.2% 12000 05-27-15
87 GreatStar 26.2% 12002 05-27-15
88 Sondow 26.2% 12004 05-27-15
89 The Great Lord Mick 25.9% 12051 05-27-15
90 Mastakirby 25.9% 12057 05-27-15
91 LinksDarkArrows 25.7% 12081 05-27-15
92 Nimrod 25.4% 12124 05-27-15
93 Skylace 24.8% 12233 05-27-15
94 Rolken 23.3% 12466 05-27-15
95 Xia 21.8% 12719 05-27-15
96 Kogen Player Banned 21.7% 12731 05-27-15
97 Spinballwizard 21.6% 12750 05-27-15
98 Don 21.3% 12792 05-27-15
99 Miles9999 21.2% 12807 05-27-15
100 Cutiefox 21.2% 12810 05-27-15
101 f0rever_zer0 21.1% 12836 05-27-15
102 Game_Complete 21.0% 12841 05-27-15
103 andres430 20.4% 12946 05-27-15
104 Cruizer 20.3% 12958 05-27-15
105 iSonicKid2K 20.1% 12993 05-27-15
106 SADXTryHard 19.7% 13053 05-27-15
107 GarnetPrincess 19.4% 13111 05-27-15
108 knuckles_sonic8 18.8% 13207 05-27-15
109 Team_Yoshi 18.3% 13290 05-27-15
110 KinkyCadence 18.0% 13334 05-27-15
111 The Knuckles Chao 17.8% 13370 05-27-15
112 Termon 17.7% 13387 05-27-15
113 FoxBoy 17.6% 13396 05-27-15
114 LittleBigness 17.4% 13426 05-27-15
115 SonicWinDX 17.4% 13429 05-27-15
116 Sonic Singularity 15.5% 13740 05-27-15
117 Pokemonmaster888 15.5% 13748 05-27-15
118 BigAL49 14.5% 13912 05-27-15
119 SilverSonic 14.3% 13943 05-27-15
120 MPit08 14.2% 13954 05-27-15
121 WeegeeZV 14.1% 13976 05-27-15
122 Mo Player Banned 14.0% 13982 05-27-15
123 Cod4Scopes 13.4% 14078 05-27-15
124 HyperSonic64 13.2% 14109 05-27-15
125 booo95 13.2% 14122 05-27-15
126 Chawkk 13.1% 14140 05-27-15
127 paulie9990 13.0% 14156 05-27-15
128 Hunters13 12.9% 14170 05-27-15
128 SuperSonic101 12.9% 14170 05-27-15
130 Maxinfamily 12.6% 14207 05-27-15
131 Flying Fox 12.5% 14237 05-27-15
132 PsyBorg 12.4% 14239 05-27-15
133 Kanimayo_Jp 12.4% 14245 05-27-15
134 BrokenArthritis 12.3% 14260 05-27-15
135 LilZero 12.1% 14293 05-27-15
136 a_moustache 11.9% 14330 05-27-15
137 Therio 11.7% 14356 05-27-15
138 Drakodan 11.7% 14367 05-27-15
139 sonicspeed 11.6% 14373 05-27-15
140 douglas 11.5% 14397 05-27-15
141 Matt_TY 11.1% 14451 05-27-15
142 joecoolgames 10.5% 14550 05-27-15
143 Cooljay 10.5% 14552 05-27-15
144 SeaWolf 10.4% 14568 05-27-15
145 TFEC Headshot 9.9% 14652 05-27-15
146 welshmoose05 9.8% 14671 05-27-15
147 crazy1993 9.5% 14711 05-27-15
148 Mcshuggets 9.5% 14715 05-27-15
149 videogamer1014 9.2% 14764 05-27-15
150 imazor017 9.2% 14774 05-27-15
151 nuckrieg 9.1% 14792 05-27-15
152 niscool 9.0% 14802 05-27-15
153 SonicAD 9.0% 14803 05-27-15
154 SirTobbii 8.9% 14820 05-27-15
155 Shadowthegreat 8.7% 14848 05-27-15
155 superjupi 8.7% 14848 05-27-15
157 SaviourDC 8.4% 14895 05-27-15
158 iarebored 8.4% 14900 05-27-15
159 sonamyfan666 8.3% 14912 05-27-15
160 Werey 8.2% 14923 05-27-15
161 SonicKnuckles 8.2% 14936 05-27-15
162 adf 7.9% 14983 05-27-15
163 ArcticDragon 7.8% 14991 05-27-15
164 Megaman EXE565 7.7% 15011 05-27-15
165 Platformer 7.4% 15065 05-27-15
166 Mariobutch 7.4% 15068 05-27-15
167 FocusSight64 7.3% 15077 05-27-15
168 wheatrich 7.2% 15095 05-27-15
169 timpkmn89 7.2% 15098 05-27-15
170 Swift Hobo 7.1% 15102 05-27-15
171 Rickyman48 7.0% 15121 05-27-15
172 KitsuneYamaro 6.7% 15169 05-27-15
173 Triseena 6.6% 15188 05-27-15
174 CyberShadow 6.5% 15212 05-27-15
175 slade23 6.4% 15229 05-27-15
176 dShadow 6.4% 15231 05-27-15
177 Starlight Sable 6.3% 15232 05-27-15
178 IsisDazs 6.2% 15260 05-27-15
179 BlankTH 6.0% 15286 05-27-15
180 Monkeh 5.8% 15328 05-27-15
181 Richied 5.7% 15336 05-27-15
182 DaDude 5.6% 15356 05-27-15
183 sonicd5 5.5% 15374 05-27-15
184 Zip 5.4% 15380 05-27-15
185 tal39h 5.1% 15432 05-27-15
185 Kirbymon30 5.1% 15432 05-27-15
187 ethmar 4.9% 15475 05-27-15
188 soniccoloursunleashed 4.8% 15482 05-27-15
189 Drflash55 4.8% 15486 05-27-15
190 Yish 4.6% 15510 05-27-15
191 neaolas 4.6% 15514 05-27-15
192 Bass 4.6% 15515 05-27-15
193 UninspiredUsername 4.5% 15530 05-27-15
194 superiorsonic 4.5% 15531 05-27-15
195 Sonicsuperstar1 4.5% 15532 05-27-15
196 zapp 4.5% 15539 05-27-15
197 gamefreak1292 4.4% 15551 05-27-15
198 SonicU260 4.1% 15602 05-27-15
199 Chaos_Overlord 4.1% 15604 05-27-15
200 TakaRikka 4.0% 15619 05-27-15
201 Valfore 3.9% 15627 05-27-15
202 ShinigamiMachine 3.8% 15650 05-27-15
203 Regano1000 3.7% 15665 05-27-15
204 MK 3.6% 15680 05-27-15
205 Ace747 3.5% 15693 05-27-15
206 Illidan 3.2% 15740 05-27-15
207 HHNNBBHHN 3.1% 15753 05-27-15
208 Venick409 3.1% 15755 05-27-15
209 Brian_pso 3.1% 15766 05-27-15
210 Sithwarrior26 3.0% 15773 05-27-15
211 TheChaosEmeraIds 2.9% 15792 05-27-15
211 ingx24 2.9% 15792 05-27-15
213 SkyBon 2.8% 15803 05-27-15
214 Nickson98 2.8% 15804 05-27-15
215 FSSRandomvids 2.7% 15818 05-27-15
216 Fozer 2.7% 15819 05-27-15
217 sonic29887 2.7% 15823 05-27-15
218 Colomb_30 2.7% 15827 05-27-15
219 TheUltraBlur 2.6% 15841 05-27-15
220 1stKirbyever 2.5% 15854 05-27-15
221 Th4tN1nj4Turtl3 2.3% 15886 05-27-15
222 Cort_pso 2.3% 15888 05-27-15
223 Doom-9 2.3% 15895 05-27-15
224 ieatatsonic 2.2% 15902 05-27-15
225 Mariosonic15 2.2% 15905 05-27-15
226 SuperSonic71087 2.2% 15913 05-27-15
227 MStitomix 2.1% 15920 05-27-15
228 HermitHelmet 2.1% 15927 05-27-15
229 Artie 2.0% 15939 05-27-15
230 Got4n 2.0% 15940 05-27-15
231 Questionguy555 2.0% 15946 05-27-15
232 Jose_15 1.9% 15950 05-27-15
233 djmat 1.8% 15964 05-27-15
234 sonicandamy 1.7% 15981 05-27-15
235 SuperSonicfan9595 1.7% 15983 05-27-15
236 LancexExWx 1.7% 15989 05-27-15
237 son1cgu1tar 1.7% 15993 05-27-15
238 Heroes_Hater 1.7% 15994 05-27-15
239 Paixii 1.6% 15998 05-27-15
240 BallzeH 1.5% 16015 05-27-15
241 Mankster101 1.5% 16020 05-27-15
242 Jamixesa 1.5% 16025 05-27-15
242 BecauseWarAnvil 1.5% 16025 05-27-15
244 Crydio 1.4% 16030 05-27-15
245 Shanekilz 1.4% 16034 05-27-15
246 SpiritDragon1995 1.4% 16035 05-27-15
247 ReuelBrony 1.4% 16043 05-27-15
248 stanski 1.3% 16049 05-27-15
249 MarewBFN 1.3% 16052 05-27-15
250 Sonique Hedgehog 1.3% 16057 05-27-15
251 Blue Infamy 1.2% 16065 05-27-15
252 p0ker 1.2% 16066 05-27-15
253 ErrortheCucco 1.2% 16075 05-27-15
254 Arthas 1.2% 16077 05-27-15
255 Rikum22 1.1% 16078 05-27-15
256 sonic1001 1.1% 16086 05-27-15
257 WingedInsignia 1.1% 16089 05-27-15
258 syco1098 1.1% 16093 05-27-15
259 AJSIV 1.0% 16096 05-27-15
260 Sonic the Hedgehod16 1.0% 16098 05-27-15
261 sonicfan9 1.0% 16101 05-27-15
262 Calfd 1.0% 16102 05-27-15
263 BlackArmsShadow 0.9% 16113 05-27-15
264 themachoman202 0.9% 16118 05-27-15
265 Greham Adelphis 0.9% 16124 05-27-15
265 Ben1502 0.9% 16124 05-27-15
267 MastaToken 0.9% 16125 05-27-15
268 shadowblast63 Player Banned 0.9% 16126 05-27-15
269 Fivavoa 0.8% 16127 05-27-15
270 Mr. Jones 0.8% 16128 05-27-15
271 darkstarblaze 0.8% 16130 05-27-15
271 ptorflaxendrosis 0.8% 16130 05-27-15
271 arcfx1985 0.8% 16130 05-27-15
274 Gvozdevik 0.8% 16134 05-27-15
274 Knuckles 0.8% 16134 05-27-15
276 FlandreScarlet9999vr 0.8% 16135 05-27-15
277 Zeldocto 0.8% 16140 05-27-15
278 KaM Mark MaK 0.7% 16144 05-27-15
279 BeeAwwb 0.7% 16148 05-27-15
280 ShadouZaHejjihoggu 0.7% 16151 05-27-15
281 Sonic62 0.7% 16156 05-27-15
282 Sogeking 0.7% 16159 05-27-15
283 darkersupershadic 0.6% 16160 05-27-15
284 Shadygamerfreak 0.6% 16163 05-27-15
285 dragondragon18 0.6% 16164 05-27-15
286 SonicK100 0.6% 16165 05-27-15
286 Sarger001 0.6% 16165 05-27-15
288 Grady219 0.6% 16166 05-27-15
289 Jawaah 0.6% 16170 05-27-15
290 Antek 0.6% 16175 05-27-15
290 SilverK 0.6% 16175 05-27-15
292 Klaus 0.5% 16177 05-27-15
293 SpinDashMaster 0.5% 16180 05-27-15
294 BioShadow 0.5% 16181 05-27-15
295 Videogamer123 0.5% 16185 05-27-15
296 oTaiIilLsS 0.4% 16200 05-27-15
296 Egor305 0.4% 16200 05-27-15
298 Mad Andy 0.4% 16201 05-27-15
299 isaihtb11 0.4% 16202 05-27-15
300 OhNoes! 0.4% 16203 05-27-15
301 zaktu40 0.4% 16204 05-27-15
302 S-MS32X-S 0.4% 16206 05-27-15
303 gaara1234 0.4% 16207 05-27-15
304 gamed00d 0.3% 16208 05-27-15
305 Mister_Slick 0.3% 16218 05-27-15
306 Sonic06Fan 0.3% 16220 05-27-15
307 Rush Hero 0.3% 16221 05-27-15
308 SonicMega167 0.3% 16224 05-27-15
309 Iwannabelink 0.2% 16225 05-27-15
310 sonknuck23 0.2% 16230 05-27-15
311 gamer1245 0.2% 16235 05-27-15
311 DanielTheFalcon 0.2% 16235 05-27-15
313 Burningskull123 0.1% 16243 05-27-15
314 Sonicontherun 0.1% 16253 05-27-15
315 Lil_Dude 0.0% 16257 05-27-15
316 antiwwe 0.0% 16259 05-27-15
317 Genuine Hedgehog 0.0% 16263 05-27-15
317 Cbwade15 0.0% 16263 05-27-15
319 Tyrouble 0.0% 16266 05-27-15
320 Over 0.0% 16273 05-27-15
320 Tran Sonic Fan Player Banned 0.0% 16273 05-27-15
320 sdj6707 Player Banned 0.0% 16273 05-27-15
320 neji_hyuuga 0.0% 16273 05-27-15
320 MegabombBlade 0.0% 16273 05-27-15

This page is using the New Data Table System. [FUTURE]

Game ID: 3 | Category ID: 10
Hits: 63,473 | Hits This Month: 288 | DB Calls: 21 | Mem Usage: 5.45 MB | Time: 0.12s | Printable

The Sonic Center v3.9
Copyright 2003-2011 by The Sonic Center Team.